createdAt,value
2019-05-16T00:01:51.033Z,84.94
2019-05-16T00:04:23.176Z,84.77
2019-05-16T00:06:54.823Z,84.84
2019-05-16T00:09:28.589Z,84.48
2019-05-16T00:12:00.435Z,84.30
2019-05-16T00:14:32.290Z,84.99
2019-05-16T00:17:04.495Z,84.21
2019-05-16T00:19:38.119Z,84.51
2019-05-16T00:22:09.991Z,84.17
2019-05-16T00:24:41.790Z,84.44
2019-05-16T00:27:13.542Z,84.05
2019-05-16T00:29:45.673Z,84.27
2019-05-16T00:32:19.109Z,84.24
2019-05-16T00:34:51.392Z,84.31
2019-05-16T00:37:23.391Z,84.56
2019-05-16T00:39:54.847Z,84.87
2019-05-16T00:42:28.672Z,84.83
2019-05-16T00:45:01.033Z,84.56
2019-05-16T00:47:32.944Z,84.63
2019-05-16T00:50:05.159Z,84.72
2019-05-16T00:52:39.114Z,85.30
2019-05-16T00:55:10.822Z,85.97
2019-05-16T00:57:43.212Z,86.52
2019-05-16T01:00:18.049Z,86.37
2019-05-16T01:02:49.551Z,86.18
2019-05-16T01:05:21.733Z,86.61
2019-05-16T01:07:53.593Z,86.62
2019-05-16T01:10:25.592Z,86.47
2019-05-16T01:12:58.461Z,86.48
2019-05-16T01:15:30.564Z,86.73
2019-05-16T01:18:02.558Z,86.72
2019-05-16T01:20:34.566Z,86.86
2019-05-16T01:23:08.734Z,86.51
2019-05-16T01:25:39.932Z,86.84
2019-05-16T01:28:11.680Z,86.67
2019-05-16T01:30:43.722Z,86.64
2019-05-16T01:33:15.502Z,86.46
2019-05-16T01:35:47.948Z,86.32
2019-05-16T01:38:20.088Z,86.44
2019-05-16T01:40:53.222Z,86.42
2019-05-16T01:43:24.890Z,86.16
2019-05-16T01:45:57.822Z,86.25
2019-05-16T01:48:31.945Z,85.97
2019-05-16T01:51:03.581Z,86.06
2019-05-16T01:53:35.154Z,86.44
2019-05-16T01:56:08.570Z,86.41
2019-05-16T01:58:40.218Z,86.08
2019-05-16T02:01:15.710Z,86.17
2019-05-16T02:03:48.123Z,86.27
2019-05-16T02:06:20.186Z,86.47
2019-05-16T02:08:51.779Z,86.55
2019-05-16T02:11:23.564Z,86.77
2019-05-16T02:13:58.591Z,86.65
2019-05-16T02:16:31.073Z,86.60
2019-05-16T02:19:02.679Z,86.47
2019-05-16T02:21:34.711Z,86.40
2019-05-16T02:24:08.687Z,86.47
2019-05-16T02:26:40.289Z,86.48
2019-05-16T02:29:13.762Z,86.40
2019-05-16T02:31:45.508Z,86.26
2019-05-16T02:34:17.578Z,86.37
2019-05-16T02:37:10.275Z,85.96
2019-05-16T02:39:30.324Z,85.75
2019-05-16T02:42:02.074Z,85.58
2019-05-16T02:44:33.912Z,84.74
2019-05-16T02:47:05.871Z,83.88
2019-05-16T02:49:41.623Z,82.96
2019-05-16T02:52:11.326Z,82.88
2019-05-16T02:54:43.159Z,82.90
2019-05-16T02:57:15.016Z,82.73
2019-05-16T02:59:47.121Z,82.64
2019-05-16T03:02:20.529Z,82.99
2019-05-16T03:04:52.500Z,83.74
2019-05-16T03:07:37.569Z,84.13
2019-05-16T03:10:01.488Z,84.43
2019-05-16T03:12:34.375Z,84.66
2019-05-16T03:15:07.114Z,84.42
2019-05-16T03:17:41.633Z,84.56
2019-05-16T03:20:14.120Z,84.70
2019-05-16T03:22:52.008Z,85.02
2019-05-16T03:25:22.473Z,85.12
2019-05-16T03:27:54.294Z,85.33
2019-05-16T03:30:26.309Z,85.25
2019-05-16T03:33:03.833Z,85.60
2019-05-16T03:35:34.209Z,85.54
2019-05-16T03:38:06.251Z,86.09
2019-05-16T03:40:41.029Z,86.33
2019-05-16T03:43:12.098Z,86.40
2019-05-16T03:45:44.375Z,86.72
2019-05-16T03:48:16.055Z,86.63
2019-05-16T03:50:50.493Z,86.17
2019-05-16T03:53:22.673Z,86.20
2019-05-16T03:55:54.790Z,86.35
2019-05-16T03:58:26.229Z,86.53
2019-05-16T04:01:01.820Z,86.25
2019-05-16T04:03:33.223Z,86.05
2019-05-16T04:06:05.008Z,86.13
2019-05-16T04:08:36.788Z,86.44
2019-05-16T04:11:11.370Z,86.12
2019-05-16T04:13:41.800Z,86.19
2019-05-16T04:16:13.794Z,86.18
2019-05-16T04:18:45.486Z,86.13
2019-05-16T04:21:18.690Z,86.04
2019-05-16T04:23:50.769Z,86.15
2019-05-16T04:26:22.774Z,86.09
2019-05-16T04:28:54.799Z,86.29
2019-05-16T04:31:26.535Z,86.34
2019-05-16T04:34:01.120Z,86.37
2019-05-16T04:36:32.724Z,86.87
2019-05-16T04:39:07.553Z,87.31
2019-05-16T04:41:40.972Z,87.49
2019-05-16T04:44:12.851Z,87.08
2019-05-16T04:46:44.500Z,87.15
2019-05-16T04:49:16.401Z,86.87
2019-05-16T04:51:51.368Z,86.96
2019-05-16T04:54:21.919Z,86.97
2019-05-16T04:56:53.483Z,86.92
2019-05-16T04:59:25.442Z,86.94
2019-05-16T05:01:57.253Z,86.55
2019-05-16T05:04:30.564Z,86.41
2019-05-16T05:07:02.869Z,85.70
2019-05-16T05:09:34.498Z,85.37
2019-05-16T05:12:06.446Z,85.24
2019-05-16T05:14:41.450Z,84.87
2019-05-16T05:17:12.294Z,84.52
2019-05-16T05:19:45.594Z,84.05
2019-05-16T05:22:17.150Z,84.09
2019-05-16T05:24:50.775Z,83.78
2019-05-16T05:27:22.889Z,83.91
2019-05-16T05:29:54.644Z,83.31
2019-05-16T05:32:26.810Z,83.10
2019-05-16T05:34:59.914Z,83.56
2019-05-16T05:37:32.190Z,83.52
2019-05-16T05:40:05.226Z,83.71
2019-05-16T05:42:39.938Z,83.90
2019-05-16T05:45:13.299Z,83.81
2019-05-16T05:47:45.596Z,83.72
2019-05-16T05:50:20.223Z,83.68
2019-05-16T05:52:51.511Z,83.94
2019-05-16T05:55:23.132Z,83.94
2019-05-16T05:57:55.090Z,83.91
2019-05-16T06:00:30.134Z,83.78
2019-05-16T06:03:00.729Z,83.63
2019-05-16T06:05:32.697Z,83.31
2019-05-16T06:08:04.537Z,83.17
2019-05-16T06:10:36.343Z,83.11
2019-05-16T06:13:10.957Z,82.85
2019-05-16T06:15:44.693Z,82.89
2019-05-16T06:18:16.520Z,82.13
2019-05-16T06:20:51.255Z,81.86
2019-05-16T06:23:22.578Z,81.36
2019-05-16T06:25:54.740Z,80.87
2019-05-16T06:28:26.288Z,80.48
2019-05-16T06:31:01.416Z,80.23
2019-05-16T06:33:31.771Z,79.86
2019-05-16T06:36:03.818Z,78.84
2019-05-16T06:38:35.830Z,78.72
2019-05-16T06:41:07.449Z,78.67
2019-05-16T06:43:39.995Z,78.50
2019-05-16T06:46:12.754Z,78.46
2019-05-16T06:48:44.196Z,77.83
2019-05-16T06:51:16.071Z,78.77
2019-05-16T06:53:49.829Z,77.86
2019-05-16T06:56:21.377Z,78.24
2019-05-16T06:58:53.731Z,78.20
2019-05-16T07:01:29.652Z,78.56
2019-05-16T07:04:01.117Z,78.90
2019-05-16T07:06:51.744Z,78.97
2019-05-16T07:09:10.336Z,78.50
2019-05-16T07:11:41.457Z,78.69
2019-05-16T07:14:13.735Z,78.10
2019-05-16T07:16:45.800Z,77.72
2019-05-16T07:19:17.864Z,77.57
2019-05-16T07:21:50.787Z,77.07
2019-05-16T07:24:23.119Z,77.07
2019-05-16T07:26:54.815Z,75.77
2019-05-16T07:29:27.767Z,75.42
2019-05-16T07:32:01.088Z,75.15
2019-05-16T07:34:32.961Z,76.03
2019-05-16T07:37:04.981Z,75.86
2019-05-16T07:39:38.662Z,76.26
2019-05-16T07:42:11.407Z,76.83
2019-05-16T07:44:43.263Z,76.72
2019-05-16T07:47:14.941Z,76.84
2019-05-16T07:49:46.945Z,76.91
2019-05-16T07:52:20.895Z,76.64
2019-05-16T07:54:52.279Z,76.24
2019-05-16T07:57:24.315Z,74.47
2019-05-16T08:00:00.320Z,75.53
2019-05-16T08:02:40.375Z,75.08
2019-05-16T08:05:14.826Z,73.10
2019-05-16T08:07:50.828Z,72.70
2019-05-16T08:10:37.122Z,72.85
2019-05-16T08:13:03.316Z,71.89
2019-05-16T08:15:35.071Z,70.55
2019-05-16T08:18:06.951Z,68.69
2019-05-16T08:20:41.274Z,68.50
2019-05-16T08:23:13.426Z,68.27
2019-05-16T08:25:45.586Z,67.67
2019-05-16T08:28:20.518Z,64.25
2019-05-16T08:30:52.851Z,63.81
2019-05-16T08:33:26.931Z,61.85
2019-05-16T08:36:04.698Z,62.88
2019-05-16T08:38:33.877Z,62.23
2019-05-16T08:41:11.986Z,60.93
2019-05-16T08:43:41.286Z,60.45
2019-05-16T08:46:12.596Z,59.32
2019-05-16T08:48:44.387Z,58.87
2019-05-16T08:51:16.165Z,58.58
2019-05-16T08:53:50.438Z,58.12
2019-05-16T08:56:22.557Z,57.56
2019-05-16T08:58:55.083Z,56.41
2019-05-16T09:01:27.197Z,56.89
2019-05-16T09:04:01.388Z,57.80
2019-05-16T09:06:34.047Z,58.63
2019-05-16T09:10:19.015Z,60.25
2019-05-16T09:11:45.112Z,60.66
2019-05-16T09:14:17.141Z,60.49
2019-05-16T09:16:50.580Z,59.90
2019-05-16T09:19:27.531Z,58.52
2019-05-16T09:21:59.305Z,57.62
2019-05-16T09:24:31.256Z,55.16
2019-05-16T09:27:05.131Z,55.38
2019-05-16T09:29:37.746Z,55.66
2019-05-16T09:32:17.112Z,54.71
2019-05-16T09:34:43.686Z,54.01
2019-05-16T09:37:17.714Z,52.94
2019-05-16T09:39:49.021Z,51.75
2019-05-16T09:42:21.297Z,50.38
2019-05-16T09:44:53.257Z,50.93
2019-05-16T09:47:27.899Z,49.94
2019-05-16T09:49:58.486Z,50.25
2019-05-16T09:52:30.628Z,50.16
2019-05-16T09:55:03.115Z,49.58
2019-05-16T09:57:37.602Z,48.87
2019-05-16T10:00:13.526Z,49.76
2019-05-16T10:02:47.509Z,50.24
2019-05-16T10:05:21.309Z,50.62
2019-05-16T10:08:10.223Z,49.74
2019-05-16T10:10:42.226Z,48.98
2019-05-16T10:13:18.303Z,48.33
2019-05-16T10:15:50.455Z,49.92
2019-05-16T10:18:22.050Z,50.61
2019-05-16T10:20:58.974Z,51.04
2019-05-16T10:23:30.590Z,51.35
2019-05-16T10:26:05.026Z,50.77
2019-05-16T10:28:38.372Z,48.01
2019-05-16T10:31:12.588Z,47.30
2019-05-16T10:33:47.665Z,48.47
2019-05-16T10:36:21.590Z,48.19
2019-05-16T10:38:59.043Z,47.89
2019-05-16T10:41:27.469Z,49.15
2019-05-16T10:44:00.680Z,49.09
2019-05-16T10:46:32.782Z,49.61
2019-05-16T10:49:05.105Z,49.17
2019-05-16T10:51:37.858Z,47.93
2019-05-16T10:54:18.535Z,47.76
2019-05-16T10:56:49.951Z,47.05
2019-05-16T10:59:54.581Z,46.70
2019-05-16T11:02:27.546Z,46.78
2019-05-16T11:05:22.624Z,46.46
2019-05-16T11:07:38.414Z,45.26
2019-05-16T11:10:21.875Z,43.91
2019-05-16T11:13:02.140Z,45.02
2019-05-16T11:15:42.109Z,43.42
2019-05-16T11:18:17.403Z,43.80
2019-05-16T11:20:59.557Z,43.80
2019-05-16T11:23:31.913Z,43.73
2019-05-16T11:26:03.993Z,44.20
2019-05-16T11:28:36.985Z,45.54
2019-05-16T11:31:09.229Z,44.87
2019-05-16T11:33:41.276Z,43.38
2019-05-16T11:36:16.567Z,42.86
2019-05-16T11:38:48.000Z,42.86
2019-05-16T11:41:19.923Z,43.48
2019-05-16T11:43:54.203Z,43.88
2019-05-16T11:46:28.175Z,44.38
2019-05-16T11:49:00.112Z,43.72
2019-05-16T11:51:32.024Z,42.25
2019-05-16T11:54:06.771Z,42.03
2019-05-16T11:56:41.955Z,42.00
2019-05-16T11:59:14.395Z,41.88
2019-05-16T12:01:47.414Z,41.38
2019-05-16T12:04:20.078Z,42.12
2019-05-16T12:06:52.027Z,42.47
2019-05-16T12:09:33.474Z,42.08
2019-05-16T12:12:04.241Z,42.67
2019-05-16T12:14:37.260Z,44.26
2019-05-16T12:17:08.780Z,45.76
2019-05-16T12:19:43.909Z,48.27
2019-05-16T12:22:14.436Z,47.50
2019-05-16T12:24:47.709Z,46.45
2019-05-16T12:27:20.046Z,45.83
2019-05-16T12:29:59.613Z,46.97
2019-05-16T12:32:28.393Z,48.61
2019-05-16T12:35:01.443Z,48.17
2019-05-16T12:37:37.227Z,49.37
2019-05-16T12:40:10.095Z,48.33
2019-05-16T12:42:41.571Z,47.69
2019-05-16T12:45:13.590Z,47.68
2019-05-16T12:47:47.253Z,47.75
2019-05-16T12:50:19.848Z,50.94
2019-05-16T12:52:51.691Z,50.36
2019-05-16T12:55:24.088Z,50.42
2019-05-16T12:58:11.839Z,50.65
2019-05-16T13:00:29.924Z,51.55
2019-05-16T13:03:01.723Z,52.82
2019-05-16T13:05:37.575Z,52.53
2019-05-16T13:08:09.812Z,52.67
2019-05-16T13:10:41.379Z,53.94
2019-05-16T13:13:13.531Z,53.30
2019-05-16T13:15:47.519Z,54.81
2019-05-16T13:18:18.515Z,53.64
2019-05-16T13:20:50.530Z,53.36
2019-05-16T13:23:22.009Z,54.50
2019-05-16T13:25:57.479Z,54.66
2019-05-16T13:28:28.812Z,54.64
2019-05-16T13:31:00.987Z,55.12
2019-05-16T13:33:32.670Z,54.02
2019-05-16T13:36:04.260Z,55.36
2019-05-16T13:39:08.047Z,55.40
2019-05-16T13:41:48.057Z,54.87
2019-05-16T13:44:34.182Z,56.32
2019-05-16T13:47:07.677Z,56.38
2019-05-16T13:49:40.105Z,56.85
2019-05-16T13:52:12.750Z,57.49
2019-05-16T13:54:45.764Z,58.55
2019-05-16T13:57:18.447Z,58.87
2019-05-16T13:59:50.814Z,59.72
2019-05-16T14:02:23.165Z,60.49
2019-05-16T14:04:57.472Z,57.59
2019-05-16T14:07:29.399Z,58.18
2019-05-16T14:10:01.303Z,57.76
2019-05-16T14:12:36.489Z,58.66
2019-05-16T14:15:09.065Z,59.24
2019-05-16T14:17:41.017Z,59.33
2019-05-16T14:20:15.042Z,59.21
2019-05-16T14:22:48.040Z,61.24
2019-05-16T14:25:23.034Z,60.43
2019-05-16T14:27:56.819Z,60.69
2019-05-16T14:30:28.763Z,61.59
2019-05-16T14:33:02.498Z,61.81
2019-05-16T14:35:34.812Z,62.68
2019-05-16T14:38:06.715Z,62.28
2019-05-16T14:40:50.504Z,62.55
2019-05-16T14:43:22.128Z,63.30
2019-05-16T14:45:54.079Z,63.51
2019-05-16T14:48:27.857Z,63.68
2019-05-16T14:50:59.138Z,65.06
2019-05-16T14:53:31.404Z,64.87
2019-05-16T14:56:03.493Z,64.23
2019-05-16T14:58:37.794Z,65.32
2019-05-16T15:01:09.321Z,64.73
2019-05-16T15:03:42.967Z,64.14
2019-05-16T15:06:17.975Z,65.61
2019-05-16T15:08:48.937Z,65.44
2019-05-16T15:11:20.474Z,64.89
2019-05-16T15:13:52.426Z,64.36
2019-05-16T15:16:24.283Z,64.20
2019-05-16T15:18:57.548Z,65.06
2019-05-16T15:21:29.520Z,64.63
2019-05-16T15:24:01.298Z,64.21
2019-05-16T15:26:33.263Z,65.09
2019-05-16T15:29:08.214Z,65.78
2019-05-16T15:31:39.603Z,65.44
2019-05-16T15:34:11.724Z,66.42
2019-05-16T15:36:43.306Z,65.90
2019-05-16T15:39:16.959Z,65.65
2019-05-16T15:41:50.671Z,65.10
2019-05-16T15:44:27.221Z,65.46
2019-05-16T15:46:59.976Z,66.59
2019-05-16T15:49:37.688Z,66.86
2019-05-16T15:52:11.269Z,67.11
2019-05-16T15:54:45.193Z,66.32
2019-05-16T15:57:17.727Z,66.18
2019-05-16T15:59:49.910Z,66.52
2019-05-16T16:02:22.656Z,66.71
2019-05-16T16:04:57.431Z,65.50
2019-05-16T16:07:29.489Z,65.74
2019-05-16T16:10:06.833Z,65.26
2019-05-16T16:12:47.743Z,66.40
2019-05-16T16:15:20.422Z,66.00
2019-05-16T16:17:52.239Z,66.46
2019-05-16T16:20:28.086Z,66.47
2019-05-16T16:23:00.231Z,66.53
2019-05-16T16:25:32.345Z,67.23
2019-05-16T16:28:07.130Z,67.65
2019-05-16T16:30:39.132Z,66.55
2019-05-16T16:33:25.147Z,66.37
2019-05-16T16:35:57.554Z,66.30
2019-05-16T16:38:32.497Z,66.28
2019-05-16T16:41:18.193Z,67.30
2019-05-16T16:43:53.594Z,66.37
2019-05-16T16:46:40.778Z,67.66
2019-05-16T16:49:18.649Z,67.59
2019-05-16T16:51:51.288Z,67.25
2019-05-16T16:54:58.022Z,66.25
2019-05-16T16:57:31.320Z,67.42
2019-05-16T17:00:08.088Z,67.97
2019-05-16T17:06:18.175Z,68.97
2019-05-16T17:13:13.415Z,69.89
2019-05-16T17:16:02.062Z,69.82
2019-05-16T17:19:13.242Z,70.14
2019-05-16T17:22:21.658Z,70.13
2019-05-16T17:25:47.808Z,70.96
2019-05-16T17:28:17.553Z,71.47
2019-05-16T17:30:49.570Z,71.09
2019-05-16T17:33:21.578Z,71.73
2019-05-16T17:35:53.506Z,71.95
2019-05-16T17:39:19.571Z,71.43
2019-05-16T17:46:36.842Z,71.80
2019-05-16T17:49:26.693Z,71.84
2019-05-16T17:56:48.726Z,72.50
2019-05-16T17:59:27.650Z,73.30
2019-05-16T18:02:12.862Z,73.14
2019-05-16T18:04:47.128Z,72.76
2019-05-16T18:07:20.727Z,73.99
2019-05-16T18:09:56.836Z,73.46
2019-05-16T18:12:28.958Z,73.39
2019-05-16T18:15:08.410Z,73.07
2019-05-16T18:17:46.780Z,73.26
2019-05-16T18:20:22.501Z,73.21
2019-05-16T18:22:56.961Z,74.21
2019-05-16T18:25:36.840Z,74.06
2019-05-16T18:28:12.133Z,74.43
2019-05-16T18:30:47.075Z,74.43
2019-05-16T18:33:21.552Z,74.47
2019-05-16T18:35:57.978Z,74.22
2019-05-16T18:38:30.878Z,74.37
2019-05-16T18:41:07.808Z,74.41
2019-05-16T18:43:40.185Z,74.45
2019-05-16T18:46:12.126Z,74.39
2019-05-16T18:48:46.992Z,74.74
2019-05-16T18:51:18.586Z,75.02
2019-05-16T18:53:50.857Z,74.94
2019-05-16T18:56:27.169Z,75.48
2019-05-16T18:58:59.141Z,75.98
2019-05-16T19:01:31.601Z,75.37
2019-05-16T19:04:06.705Z,75.24
2019-05-16T19:06:37.910Z,75.66
2019-05-16T19:09:10.563Z,75.43
2019-05-16T19:11:52.735Z,75.60
2019-05-16T19:14:28.663Z,76.34
2019-05-16T19:17:00.650Z,76.06
2019-05-16T19:19:37.596Z,76.17
2019-05-16T19:22:10.152Z,76.49
2019-05-16T19:24:48.352Z,76.51
2019-05-16T19:27:23.517Z,76.68
2019-05-16T19:29:58.795Z,77.05
2019-05-16T19:32:31.715Z,76.45
2019-05-16T19:35:03.987Z,77.19
2019-05-16T19:37:40.378Z,77.25
2019-05-16T19:40:11.463Z,77.56
2019-05-16T19:42:47.149Z,77.80
2019-05-16T19:45:19.341Z,78.23
2019-05-16T19:47:50.956Z,78.19
2019-05-16T19:50:26.791Z,78.24
2019-05-16T19:52:58.977Z,78.67
2019-05-16T19:55:30.641Z,78.43
2019-05-16T19:58:03.063Z,78.35
2019-05-16T20:00:37.173Z,79.60
2019-05-16T20:03:08.254Z,78.56
2019-05-16T20:05:40.282Z,78.76
2019-05-16T20:08:12.721Z,78.39
2019-05-16T20:10:44.271Z,78.80
2019-05-16T20:13:16.589Z,78.16
2019-05-16T20:15:49.059Z,77.53
2019-05-16T20:18:21.012Z,77.31
2019-05-16T20:20:56.769Z,76.87
2019-05-16T20:23:28.827Z,76.97
2019-05-16T20:26:00.674Z,76.56
2019-05-16T20:28:32.495Z,76.38
2019-05-16T20:31:04.043Z,75.99
2019-05-16T20:33:37.622Z,76.22
2019-05-16T20:36:09.789Z,76.43
2019-05-16T20:38:41.958Z,75.91
2019-05-16T20:41:13.593Z,75.96
2019-05-16T20:43:47.354Z,75.81
2019-05-16T20:46:19.124Z,75.85
2019-05-16T20:48:51.199Z,75.95
2019-05-16T20:51:23.319Z,75.94
2019-05-16T20:53:57.739Z,75.78
2019-05-16T20:56:28.911Z,75.81
2019-05-16T20:59:00.931Z,75.75
2019-05-16T21:01:33.007Z,75.44
2019-05-16T21:04:07.023Z,75.52
2019-05-16T21:06:38.768Z,75.97
2019-05-16T21:09:46.350Z,75.92
2019-05-16T21:12:19.258Z,76.22
2019-05-16T21:14:51.216Z,75.99
2019-05-16T21:17:23.668Z,75.83
2019-05-16T21:19:57.700Z,75.45
2019-05-16T21:22:32.161Z,75.56
2019-05-16T21:25:05.135Z,75.52
2019-05-16T21:27:38.535Z,75.83
2019-05-16T21:30:11.223Z,75.71
2019-05-16T21:32:42.919Z,75.86
2019-05-16T21:35:15.094Z,75.59
2019-05-16T21:37:46.972Z,75.67
2019-05-16T21:40:19.193Z,75.68
2019-05-16T21:42:51.247Z,75.58
2019-05-16T21:45:22.810Z,75.36
2019-05-16T21:47:56.780Z,75.38
2019-05-16T21:50:28.338Z,75.39
2019-05-16T21:53:00.606Z,75.52
2019-05-16T21:55:32.873Z,75.55
2019-05-16T21:58:04.642Z,75.79
2019-05-16T22:00:43.840Z,75.78
2019-05-16T22:03:16.148Z,76.16
2019-05-16T22:05:48.505Z,76.06
2019-05-16T22:08:20.133Z,76.00
2019-05-16T22:10:51.889Z,75.56
2019-05-16T22:13:24.348Z,75.87
2019-05-16T22:15:57.019Z,76.15
2019-05-16T22:18:30.228Z,75.94
2019-05-16T22:21:11.828Z,76.92
2019-05-16T22:23:43.734Z,75.88
2019-05-16T22:26:16.841Z,75.24
2019-05-16T22:28:51.822Z,74.40
2019-05-16T22:31:26.902Z,73.29
2019-05-16T22:34:01.379Z,73.15
2019-05-16T22:36:37.995Z,72.73
2019-05-16T22:39:12.555Z,72.45
2019-05-16T22:41:46.492Z,72.44
2019-05-16T22:44:18.022Z,72.26
2019-05-16T22:46:50.288Z,72.79
2019-05-16T22:49:39.775Z,73.40
2019-05-16T22:52:12.189Z,73.42
2019-05-16T22:54:44.305Z,73.46
2019-05-16T22:57:17.581Z,73.46
2019-05-16T22:59:50.172Z,73.75
2019-05-16T23:02:22.240Z,73.89
2019-05-16T23:04:53.812Z,73.54
2019-05-16T23:07:27.475Z,73.56
2019-05-16T23:09:59.815Z,73.59
2019-05-16T23:12:31.931Z,73.51
2019-05-16T23:15:06.437Z,73.48
2019-05-16T23:17:37.793Z,73.59
2019-05-16T23:20:09.867Z,73.53
2019-05-16T23:22:41.929Z,73.27
2019-05-16T23:25:13.950Z,73.41
2019-05-16T23:27:47.442Z,73.54
2019-05-16T23:30:19.873Z,73.81
2019-05-16T23:32:51.663Z,73.70
2019-05-16T23:35:23.655Z,73.75
2019-05-16T23:37:56.977Z,73.95
2019-05-16T23:40:29.569Z,74.34
2019-05-16T23:43:01.288Z,74.46
2019-05-16T23:45:33.222Z,74.50
2019-05-16T23:48:09.539Z,74.43
2019-05-16T23:50:38.587Z,74.46
2019-05-16T23:53:10.719Z,74.40
2019-05-16T23:55:43.395Z,74.44
2019-05-16T23:58:15.759Z,74.43
